createdAt,value
2023-04-01T00:04:38.997Z,98576.63
2023-04-01T00:09:40.621Z,98566.88
2023-04-01T00:14:42.477Z,98569.30
2023-04-01T00:19:44.634Z,98571.05
2023-04-01T00:24:46.117Z,98572.04
2023-04-01T00:29:48.770Z,98570.17
2023-04-01T00:34:54.014Z,98568.43
2023-04-01T00:39:56.160Z,98563.94
2023-04-01T00:44:58.161Z,98565.42
2023-04-01T00:50:00.803Z,98567.23
2023-04-01T00:55:05.494Z,98569.73
2023-04-01T01:00:12.151Z,98571.41
2023-04-01T01:05:17.206Z,98564.65
2023-04-01T01:10:30.285Z,98563.65
2023-04-01T01:15:47.737Z,98566.85
2023-04-01T01:20:58.538Z,98566.80
2023-04-01T01:26:13.907Z,98564.63
2023-04-01T01:31:44.106Z,98560.89
2023-04-01T01:36:49.865Z,98560.84
2023-04-01T01:41:51.917Z,98557.80
2023-04-01T01:46:53.480Z,98558.46
2023-04-01T01:51:55.073Z,98565.21
2023-04-01T01:57:18.342Z,98559.02
2023-04-01T02:02:20.963Z,98555.77
2023-04-01T02:07:29.262Z,98546.52
2023-04-01T02:12:32.424Z,98538.78
2023-04-01T02:17:36.856Z,98531.18
2023-04-01T02:22:43.642Z,98528.95
2023-04-01T02:27:46.527Z,98529.23
2023-04-01T02:32:49.794Z,98528.11
2023-04-01T02:37:53.709Z,98531.67
2023-04-01T02:42:55.823Z,98534.57
2023-04-01T02:47:57.380Z,98530.96
2023-04-01T02:52:59.197Z,98532.55
2023-04-01T02:58:01.283Z,98529.56
2023-04-01T03:03:03.803Z,98535.85
2023-04-01T03:08:06.625Z,98539.75
2023-04-01T03:13:08.829Z,98540.23
2023-04-01T03:18:10.315Z,98543.70
2023-04-01T03:23:11.843Z,98544.75
2023-04-01T03:28:14.760Z,98551.64
2023-04-01T03:33:16.253Z,98556.17
2023-04-01T03:38:17.778Z,98561.40
2023-04-01T03:43:19.296Z,98563.65
2023-04-01T03:48:21.535Z,98561.98
2023-04-01T03:53:23.136Z,98566.30
2023-04-01T03:58:24.922Z,98572.55
2023-04-01T04:03:27.624Z,98577.09
2023-04-01T04:08:29.528Z,98587.39
2023-04-01T04:13:31.034Z,98592.85
2023-04-01T04:18:32.630Z,98597.46
2023-04-01T04:23:34.749Z,98601.02
2023-04-01T04:28:36.276Z,98603.10
2023-04-01T04:33:38.376Z,98605.59
2023-04-01T04:38:39.950Z,98607.02
2023-04-01T04:43:42.382Z,98603.91
2023-04-01T04:48:44.870Z,98608.09
2023-04-01T04:53:47.042Z,98612.44
2023-04-01T04:58:49.854Z,98618.77
2023-04-01T05:03:52.941Z,98620.09
2023-04-01T05:08:54.433Z,98617.15
2023-04-01T05:13:55.936Z,98621.56
2023-04-01T05:18:57.729Z,98621.10
2023-04-01T05:23:59.219Z,98622.52
2023-04-01T05:29:00.784Z,98622.98
2023-04-01T05:34:02.589Z,98622.49
2023-04-01T05:39:04.686Z,98628.85
2023-04-01T05:44:06.453Z,98632.23
2023-04-01T05:49:07.956Z,98631.36
2023-04-01T05:54:09.483Z,98635.13
2023-04-01T05:59:12.200Z,98639.17
2023-04-01T06:04:18.860Z,98638.62
2023-04-01T06:09:28.075Z,98635.46
2023-04-01T06:14:45.859Z,98631.58
2023-04-01T06:20:21.649Z,98632.79
2023-04-01T06:25:48.418Z,98625.65
2023-04-01T06:31:28.025Z,98628.34
2023-04-01T06:36:56.674Z,98634.74
2023-04-01T06:42:20.240Z,98630.00
2023-04-01T06:47:25.426Z,98631.77
2023-04-01T06:52:43.483Z,98628.52
2023-04-01T06:57:49.274Z,98626.66
2023-04-01T07:03:11.779Z,98621.48
2023-04-01T07:08:19.595Z,98625.36
2023-04-01T07:13:35.247Z,98628.33
2023-04-01T07:18:51.464Z,98633.61
2023-04-01T07:23:57.621Z,98635.61
2023-04-01T07:28:59.585Z,98637.23
2023-04-01T07:34:06.970Z,98637.05
2023-04-01T07:39:46.579Z,98632.87
2023-04-01T07:45:18.578Z,98632.06
2023-04-01T07:50:35.190Z,98635.48
2023-04-01T07:55:57.445Z,98635.48
2023-04-01T08:01:17.666Z,98634.12
2023-04-01T08:06:33.445Z,98634.75
2023-04-01T08:11:59.519Z,98639.02
2023-04-01T08:17:11.927Z,98645.30
2023-04-01T08:22:21.531Z,98652.08
2023-04-01T08:27:29.936Z,98655.16
2023-04-01T08:32:44.510Z,98659.30
2023-04-01T08:37:48.567Z,98666.66
2023-04-01T08:43:47.022Z,98671.42
2023-04-01T08:49:03.801Z,98667.73
2023-04-01T08:54:30.906Z,98669.42
2023-04-01T08:59:41.785Z,98673.70
2023-04-01T09:05:05.754Z,98670.55
2023-04-01T09:10:13.408Z,98667.83
2023-04-01T09:15:27.169Z,98669.98
2023-04-01T09:20:45.551Z,98671.58
2023-04-01T09:26:09.440Z,98672.80
2023-04-01T09:31:59.312Z,98672.52
2023-04-01T09:37:00.765Z,98668.16
2023-04-01T09:42:02.234Z,98665.44
2023-04-01T09:47:46.144Z,98669.74
2023-04-01T09:52:56.778Z,98674.45
2023-04-01T09:58:13.367Z,98678.87
2023-04-01T10:03:50.693Z,98679.35
2023-04-01T10:09:17.822Z,98677.62
2023-04-01T10:14:35.995Z,98685.94
2023-04-01T10:20:15.242Z,98684.38
2023-04-01T10:25:25.771Z,98681.17
2023-04-01T10:31:04.684Z,98685.50
2023-04-01T10:36:31.397Z,98681.94
2023-04-01T10:41:35.780Z,98679.08
2023-04-01T10:46:59.308Z,98678.11
2023-04-01T10:52:36.485Z,98678.50
2023-04-01T10:58:19.672Z,98682.92
2023-04-01T11:03:59.120Z,98683.56
2023-04-01T11:09:22.494Z,98678.03
2023-04-01T11:14:59.996Z,98674.02
2023-04-01T11:20:50.071Z,98678.98
2023-04-01T11:26:07.407Z,98676.77
2023-04-01T11:31:36.659Z,98673.53
2023-04-01T11:36:53.521Z,98679.70
2023-04-01T11:42:27.302Z,98683.14
2023-04-01T11:48:00.922Z,98684.30
2023-04-01T11:53:14.756Z,98690.45
2023-04-01T11:58:38.166Z,98701.00
2023-04-01T12:04:05.068Z,98702.59
2023-04-01T12:09:09.868Z,98709.13
2023-04-01T12:14:33.175Z,98721.52
2023-04-01T12:20:02.917Z,98730.63
2023-04-01T12:25:16.364Z,98724.67
2023-04-01T12:30:23.976Z,98723.56
2023-04-01T12:35:30.855Z,98722.06
2023-04-01T12:40:51.260Z,98726.00
2023-04-01T12:46:17.703Z,98725.11
2023-04-01T12:51:22.424Z,98724.58
2023-04-01T12:56:54.334Z,98727.73
2023-04-01T13:01:58.875Z,98731.61
2023-04-01T13:07:19.229Z,98731.16
2023-04-01T13:12:49.026Z,98734.40
2023-04-01T13:18:26.255Z,98742.84
2023-04-01T13:23:56.004Z,98746.98
2023-04-01T13:29:10.682Z,98748.48
2023-04-01T13:35:00.747Z,98754.09
2023-04-01T13:40:14.374Z,98757.59
2023-04-01T13:45:55.650Z,98757.54
2023-04-01T13:51:21.615Z,98761.52
2023-04-01T13:57:01.045Z,98762.66
2023-04-01T14:02:30.925Z,98759.25
2023-04-01T14:08:11.521Z,98764.63
2023-04-01T14:13:42.802Z,98760.39
2023-04-01T14:19:09.983Z,98760.43
2023-04-01T14:24:29.976Z,98761.54
2023-04-01T14:29:43.650Z,98765.59
2023-04-01T14:35:16.397Z,98764.91
2023-04-01T14:40:24.298Z,98760.80
2023-04-01T14:45:34.908Z,98767.48
2023-04-01T14:50:51.901Z,98771.70
2023-04-01T14:56:00.202Z,98777.55
2023-04-01T15:01:07.549Z,98782.52
2023-04-01T15:06:37.482Z,98787.20
2023-04-01T15:11:42.054Z,98797.39
2023-04-01T15:16:56.391Z,98804.73
2023-04-01T15:22:26.105Z,98812.10
2023-04-01T15:28:05.360Z,98822.41
2023-04-01T15:33:23.682Z,98835.21
2023-04-01T15:38:43.480Z,98840.33
2023-04-01T15:43:49.728Z,98848.47
2023-04-01T15:49:03.962Z,98849.61
2023-04-01T15:54:35.465Z,98856.73
2023-04-01T16:00:03.264Z,98870.46
2023-04-01T16:05:31.138Z,98875.83
2023-04-01T16:11:27.393Z,98888.48
2023-04-01T16:16:35.018Z,98903.57
2023-04-01T16:21:47.124Z,98916.44
2023-04-01T16:26:55.948Z,98923.02
2023-04-01T16:32:33.090Z,98929.63
2023-04-01T16:37:45.847Z,98937.05
2023-04-01T16:43:11.655Z,98947.77
2023-04-01T16:48:17.253Z,98950.45
2023-04-01T16:53:26.503Z,98960.93
2023-04-01T16:58:42.743Z,98971.64
2023-04-01T17:03:54.021Z,98982.54
2023-04-01T17:09:13.737Z,98993.22
2023-04-01T17:14:31.521Z,99001.63
2023-04-01T17:19:43.907Z,99013.12
2023-04-01T17:25:05.719Z,99019.04
2023-04-01T17:30:38.227Z,99031.54
2023-04-01T17:36:00.104Z,99038.56
2023-04-01T17:41:20.966Z,99048.23
2023-04-01T17:46:42.890Z,99053.05
2023-04-01T17:52:01.177Z,99066.36
2023-04-01T17:57:30.920Z,99078.86
2023-04-01T18:02:54.884Z,99088.94
2023-04-01T18:08:17.056Z,99101.42
2023-04-01T18:13:47.278Z,99106.60
2023-04-01T18:19:02.730Z,99108.94
2023-04-01T18:24:19.737Z,99115.99
2023-04-01T18:29:34.102Z,99125.89
2023-04-01T18:34:58.885Z,99134.95
2023-04-01T18:40:27.894Z,99136.89
2023-04-01T18:45:41.993Z,99143.65
2023-04-01T18:50:58.916Z,99147.60
2023-04-01T18:56:04.090Z,99151.80
2023-04-01T19:01:14.224Z,99157.11
2023-04-01T19:06:39.555Z,99163.98
2023-04-01T19:11:50.974Z,99172.09
2023-04-01T19:17:01.815Z,99179.52
2023-04-01T19:22:26.743Z,99188.90
2023-04-01T19:27:32.885Z,99198.64
2023-04-01T19:32:43.599Z,99207.20
2023-04-01T19:38:10.329Z,99213.34
2023-04-01T19:43:17.006Z,99218.40
2023-04-01T19:48:46.835Z,99225.59
2023-04-01T19:53:55.391Z,99231.73
2023-04-01T19:59:09.410Z,99232.86
2023-04-01T20:04:36.121Z,99242.88
2023-04-01T20:10:06.654Z,99251.40
2023-04-01T20:15:56.195Z,99256.48
2023-04-01T20:21:20.872Z,99264.70
2023-04-01T20:26:29.445Z,99277.37
2023-04-01T20:31:31.227Z,99282.37
2023-04-01T20:36:55.835Z,99288.30
2023-04-01T20:42:13.150Z,99291.66
2023-04-01T20:47:54.162Z,99297.05
2023-04-01T20:53:21.702Z,99298.95
2023-04-01T20:58:27.631Z,99300.21
2023-04-01T21:03:42.580Z,99308.05
2023-04-01T21:08:53.275Z,99314.34
2023-04-01T21:13:54.736Z,99324.20
2023-04-01T21:19:02.848Z,99331.98
2023-04-01T21:24:10.835Z,99337.08
2023-04-01T21:29:46.060Z,99342.78
2023-04-01T21:34:56.102Z,99348.36
2023-04-01T21:40:32.489Z,99352.61
2023-04-01T21:45:58.403Z,99358.08
2023-04-01T21:51:15.661Z,99368.20
2023-04-01T21:56:19.880Z,99370.27
2023-04-01T22:01:40.944Z,99379.56
2023-04-01T22:06:56.400Z,99382.36
2023-04-01T22:12:25.202Z,99387.59
2023-04-01T22:17:34.001Z,99391.23
2023-04-01T22:22:54.177Z,99400.89
2023-04-01T22:28:01.509Z,99407.92
2023-04-01T22:33:16.170Z,99407.17
2023-04-01T22:38:36.577Z,99413.15
2023-04-01T22:43:44.288Z,99418.54
2023-04-01T22:49:17.669Z,99420.95
2023-04-01T22:54:45.647Z,99423.92
2023-04-01T23:00:02.096Z,99428.96
2023-04-01T23:05:09.944Z,99433.73
2023-04-01T23:10:19.248Z,99440.55
2023-04-01T23:15:22.339Z,99442.27
2023-04-01T23:20:53.033Z,99451.03
2023-04-01T23:26:07.641Z,99463.73
2023-04-01T23:31:30.540Z,99461.30
2023-04-01T23:36:39.683Z,99463.96
2023-04-01T23:41:41.743Z,99469.77
2023-04-01T23:46:46.921Z,99472.23
2023-04-01T23:52:03.721Z,99480.90
2023-04-01T23:57:13.240Z,99493.69
